< < Back
Terminal Aerodrome Forecast


Current Version              Previous Versions:   1  2  3  4  5  6  7  8  9  

Terminal Aerodrome Forecast

426
FTUS42 KFFC 211700
TAFPDK
TAF
KPDK 211731Z 2118/2218 29010KT P6SM SCT050
     FM220000 27003KT P6SM SCT100
     FM220600 30005KT P6SM SCT025 SCT050
     FM221000 32003KT P6SM SCT150
     FM221600 34008KT P6SM FEW250=

Latest METAR

791
SAUS70 KWBC 221000 RRS
MTRPDK
METAR KPDK 220953Z AUTO 33009KT 10SM OVC100 20/15 A3000 RMK AO2 LTG DSNT
SE SLP142 T02000150


USA.gov is the U.S. government's official web portal to all federal, state and local government web resources and services.